Aérodrome :







RETROUVEZ-NOUS SUR...

 
LOGIN :

S'inscrire | Disclaimer

   EN    FR    IT 

 









Légende :    VFR   VFR Marginal   IFR   IFR Intensif   IFR Très Intensif
Visi : 
Plafond : 
>= 8 km
>= 3000ft
5 à 8 km
1000 à 3000 ft
1500m à 5 km
500 à 1000 ft
800 à 1500m
200 à 500 ft
< 800m
< 200 ft
Symboles :   Orages  Brouillard  Fortes neiges  Fortes précipitations  Vent > 20 kt






- Altitude de l'aérodrome : 203 ft
- Code IATA : YQY


CYQY - Sydney

DERNIER METAR :
  • 291300Z 28010KT 15SM FEW028 SCT230 03/02 A2980 RMK SC1CI2 SLP095

METARs EXPIRÉS :
  • 291200Z 27007KT 15SM FEW032 SCT230 01/00 A2979 RMK SC2CI1 SLP092
  • 291100Z 29009KT 15SM SCT030 BKN230 02/01 A2977 RMK SC4CI2 SLP086

TAF TAF CYQY
Valide du 29 à 12h jusqu'au 30 à 00h UTC


291138Z 2912/2924 30010KT P6SM SCT030
TEMPO 2912/2924 BKN020
BECMG 2913/2915 29012G22KT RMK NXT FCST BY 291800Z
FIR CZQM / Amérique du Nord



MET'MAP, la Météo Aéronautique d'un coup d'oeil ! - Copyright ORBIFLY Décembre 2007 - Disclaimer

ORBIFLY MET'MAP TEAM :

Programmation & Développement : Alexandra Zaïnal
Sur une idée originale de : Baudouin d'Aumeries
Assistance à la programmation : Marc-Olivier Méhu
Soutien technique & logistique : Manuel Goepfert

Contact : metmap@orbifly.com




SOURCES & CREDITS :

   NOAA